Time;durP1;ratioP1;P1;durP2;ratioP2;P2;SDS_P1;SDS_P2;PMS_P1;PMS_P2;Temp;Humidity;BMP_temperature;BMP_pressure;BME280_temperature;BME280_humidity;BME280_pressure;Samples;Min_cycle;Max_cycle;Signal;HPM_P1;HPM_P2
2022/03/16 00:00:26;;;;;;;25.27;17.40;;;10.60;99.90;;;;;;4990100;28;20424;-86
2022/03/16 00:02:53;;;;;;;26.53;18.67;;;10.60;99.90;;;;;;4984803;28;20480;-87
2022/03/16 00:05:26;;;;;;;24.73;19.00;;;10.50;99.90;;;;;;4983164;28;20460;-87
2022/03/16 00:07:55;;;;;;;27.13;19.07;;;10.30;99.90;;;;;;4987812;28;20979;-88
2022/03/16 00:10:25;;;;;;;26.20;19.37;;;10.10;99.90;;;;;;4982434;28;20552;-87
2022/03/16 00:12:59;;;;;;;27.07;20.23;;;10.10;99.90;;;;;;4982715;28;20505;-87
2022/03/16 00:15:29;;;;;;;26.03;20.00;;;10.20;99.90;;;;;;4983422;28;20469;-88
2022/03/16 00:17:56;;;;;;;23.37;18.97;;;10.40;99.90;;;;;;4989199;28;20510;-87
2022/03/16 00:20:26;;;;;;;28.10;21.27;;;10.30;99.90;;;;;;4996587;28;20476;-87
2022/03/16 00:22:53;;;;;;;26.67;20.00;;;10.40;99.90;;;;;;4988959;28;20487;-87
2022/03/16 00:25:20;;;;;;;27.07;19.63;;;10.40;99.90;;;;;;4989002;28;20494;-87
2022/03/16 00:27:47;;;;;;;27.67;19.10;;;10.30;99.90;;;;;;4983613;28;20453;-86
2022/03/16 00:30:14;;;;;;;30.20;23.00;;;10.20;99.90;;;;;;4998863;28;20464;-86
2022/03/16 00:32:43;;;;;;;26.43;19.00;;;10.20;99.90;;;;;;4999901;28;20433;-88
2022/03/16 00:35:10;;;;;;;27.87;21.23;;;10.10;99.90;;;;;;4985463;28;20460;-87
2022/03/16 00:37:37;;;;;;;27.80;20.83;;;10.20;99.90;;;;;;4998316;28;20466;-89
2022/03/16 00:40:09;;;;;;;30.13;22.17;;;10.20;99.90;;;;;;4995908;28;20460;-87
2022/03/16 00:42:42;;;;;;;28.90;21.50;;;10.10;99.90;;;;;;4988774;28;20476;-89
2022/03/16 00:45:10;;;;;;;31.17;23.00;;;10.10;99.90;;;;;;4984918;28;20484;-88
2022/03/16 00:47:40;;;;;;;28.97;21.90;;;10.20;99.90;;;;;;4982743;28;20511;-87
2022/03/16 00:50:09;;;;;;;31.17;23.00;;;10.30;99.90;;;;;;4983197;28;20452;-89
2022/03/16 00:52:36;;;;;;;30.90;23.53;;;10.40;99.90;;;;;;4982294;28;20459;-87
2022/03/16 00:55:04;;;;;;;28.57;20.10;;;10.40;99.90;;;;;;4981768;28;20484;-88
2022/03/16 00:57:32;;;;;;;29.20;22.27;;;10.30;99.90;;;;;;4984522;28;20460;-87
2022/03/16 00:59:59;;;;;;;32.10;24.00;;;10.30;99.90;;;;;;4982823;28;20842;-87
2022/03/16 01:02:26;;;;;;;30.67;22.17;;;10.10;99.90;;;;;;4982100;28;20491;-87
2022/03/16 01:04:54;;;;;;;33.40;22.87;;;10.00;99.90;;;;;;4982665;28;20671;-87
2022/03/16 01:07:25;;;;;;;31.67;23.90;;;10.10;99.90;;;;;;4981292;28;20939;-87
2022/03/16 01:09:53;;;;;;;33.27;24.80;;;10.10;99.90;;;;;;4980319;28;20448;-87
2022/03/16 01:12:21;;;;;;;33.47;24.50;;;10.10;99.90;;;;;;4980795;28;20880;-87
2022/03/16 01:14:48;;;;;;;36.00;25.37;;;10.00;99.90;;;;;;4980828;28;20476;-87
2022/03/16 01:17:15;;;;;;;37.47;26.97;;;9.90;99.90;;;;;;4984754;28;20441;-88
2022/03/16 01:19:48;;;;;;;39.53;28.77;;;9.80;99.90;;;;;;4984164;28;20467;-86
2022/03/16 01:22:15;;;;;;;40.73;28.40;;;9.80;99.90;;;;;;4991158;28;20517;-88
2022/03/16 01:24:48;;;;;;;41.37;29.60;;;9.70;99.90;;;;;;4989377;28;20499;-87
2022/03/16 01:27:15;;;;;;;43.27;27.87;;;9.70;99.90;;;;;;4981314;28;20424;-86
2022/03/16 01:29:42;;;;;;;41.10;28.00;;;9.70;99.90;;;;;;4981935;28;20540;-86
2022/03/16 01:32:09;;;;;;;42.27;28.20;;;9.60;99.90;;;;;;4986494;28;20463;-87
2022/03/16 01:34:37;;;;;;;44.10;29.50;;;9.70;99.90;;;;;;4980125;28;20456;-87
2022/03/16 01:37:05;;;;;;;44.43;29.87;;;9.60;99.90;;;;;;4981054;28;20441;-87
2022/03/16 01:39:32;;;;;;;39.40;28.90;;;9.60;99.90;;;;;;4978663;28;20451;-87
2022/03/16 01:42:01;;;;;;;43.87;29.77;;;9.70;99.90;;;;;;4978125;28;20495;-88
2022/03/16 01:44:46;;;;;;;43.87;30.57;;;9.70;99.90;;;;;;4989851;28;20440;-88
2022/03/16 01:47:14;;;;;;;42.73;28.60;;;9.70;99.90;;;;;;4989935;28;20496;-88
2022/03/16 01:49:41;;;;;;;39.97;28.87;;;9.70;99.90;;;;;;4984076;28;20452;-88
2022/03/16 01:52:10;;;;;;;43.87;29.80;;;9.70;99.90;;;;;;4983858;28;20495;-87
2022/03/16 01:54:37;;;;;;;41.07;29.07;;;9.70;99.90;;;;;;4986648;28;20487;-88
2022/03/16 01:57:07;;;;;;;43.03;31.00;;;9.70;99.90;;;;;;4991276;28;20473;-89
2022/03/16 01:59:35;;;;;;;45.30;31.43;;;9.80;99.90;;;;;;4982005;28;20432;-88
2022/03/16 02:02:09;;;;;;;45.27;31.40;;;9.70;99.90;;;;;;4979957;28;20456;-87
2022/03/16 02:04:40;;;;;;;44.23;31.43;;;9.70;99.90;;;;;;4979417;28;20527;-87
2022/03/16 02:07:08;;;;;;;54.50;38.10;;;9.80;99.90;;;;;;4982030;28;20417;-87
2022/03/16 02:09:35;;;;;;;44.77;32.63;;;9.80;99.90;;;;;;4981111;28;20460;-87
2022/03/16 02:12:03;;;;;;;51.10;33.10;;;9.80;99.90;;;;;;4980346;28;20494;-87
2022/03/16 02:14:31;;;;;;;44.77;32.80;;;9.80;99.90;;;;;;4979857;28;20482;-87
2022/03/16 02:16:58;;;;;;;47.70;32.60;;;9.90;99.90;;;;;;4979858;28;20448;-88
2022/03/16 02:19:26;;;;;;;47.53;32.50;;;9.90;99.90;;;;;;4979672;28;20452;-87
2022/03/16 02:21:57;;;;;;;41.63;28.57;;;9.90;99.90;;;;;;4979729;28;20516;-87
2022/03/16 02:24:25;;;;;;;44.00;32.50;;;10.00;99.90;;;;;;4989079;28;20507;-89
2022/03/16 02:26:55;;;;;;;47.57;31.77;;;10.00;99.90;;;;;;4997003;28;20448;-88
2022/03/16 02:29:22;;;;;;;47.43;31.97;;;10.00;99.90;;;;;;4995899;28;20437;-89
2022/03/16 02:31:51;;;;;;;47.83;32.73;;;10.00;99.90;;;;;;4994227;28;20520;-88
2022/03/16 02:34:18;;;;;;;45.93;32.10;;;10.00;99.90;;;;;;4989195;28;20622;-88
2022/03/16 02:36:45;;;;;;;47.47;33.17;;;10.00;99.90;;;;;;4980478;28;20491;-86
2022/03/16 02:39:12;;;;;;;43.63;30.00;;;10.00;99.90;;;;;;4980099;28;20876;-87
2022/03/16 02:41:46;;;;;;;41.47;29.77;;;10.10;99.90;;;;;;4979267;28;20518;-88
2022/03/16 02:44:15;;;;;;;45.93;31.87;;;10.20;99.90;;;;;;4980178;28;20496;-88
2022/03/16 02:46:42;;;;;;;45.83;32.53;;;10.10;99.90;;;;;;4997556;28;20440;-87
2022/03/16 02:49:09;;;;;;;46.10;31.63;;;10.10;99.90;;;;;;4993276;28;20464;-86
2022/03/16 02:51:36;;;;;;;45.17;31.20;;;10.00;99.90;;;;;;4988316;28;20481;-86
2022/03/16 02:54:04;;;;;;;47.60;32.13;;;10.00;99.90;;;;;;4995077;28;20453;-87
2022/03/16 02:56:31;;;;;;;45.17;31.90;;;10.00;99.90;;;;;;4983867;28;20540;-88
2022/03/16 02:59:00;;;;;;;47.03;30.33;;;9.90;99.90;;;;;;4985721;28;20464;-87
2022/03/16 03:01:30;;;;;;;47.43;32.87;;;10.00;99.90;;;;;;4979103;28;20452;-88
2022/03/16 03:03:58;;;;;;;51.77;33.30;;;10.00;99.90;;;;;;4979403;28;20451;-87
2022/03/16 03:06:28;;;;;;;47.30;32.80;;;10.00;99.90;;;;;;4981127;28;20434;-88
2022/03/16 03:08:55;;;;;;;50.13;33.20;;;10.00;99.90;;;;;;4983972;28;20423;-87
2022/03/16 03:11:27;;;;;;;49.70;33.17;;;9.80;99.90;;;;;;4984587;28;20467;-89
2022/03/16 03:13:54;;;;;;;51.93;30.93;;;9.80;99.90;;;;;;4986261;28;20455;-87
2022/03/16 03:16:23;;;;;;;54.87;35.20;;;9.90;99.90;;;;;;4984615;28;20500;-87
2022/03/16 03:18:52;;;;;;;49.77;32.50;;;9.70;99.90;;;;;;4982602;28;20556;-87
2022/03/16 03:21:19;;;;;;;51.60;33.37;;;9.80;99.90;;;;;;4983875;28;20515;-87
2022/03/16 03:23:46;;;;;;;49.20;32.43;;;9.70;99.90;;;;;;4980867;28;20511;-87
2022/03/16 03:26:13;;;;;;;52.67;34.77;;;9.70;99.90;;;;;;4981248;28;20508;-87
2022/03/16 03:28:41;;;;;;;54.57;35.77;;;9.50;99.90;;;;;;4980880;28;20483;-87
2022/03/16 03:31:08;;;;;;;55.03;36.33;;;9.40;99.90;;;;;;4979724;28;20535;-87
2022/03/16 03:33:37;;;;;;;57.87;37.70;;;9.40;99.90;;;;;;4983374;28;20460;-87
2022/03/16 03:36:10;;;;;;;59.90;36.40;;;9.40;99.90;;;;;;4993471;28;20507;-87
2022/03/16 03:38:38;;;;;;;64.17;39.37;;;9.40;99.90;;;;;;4983188;28;20423;-87
2022/03/16 03:41:06;;;;;;;50.03;32.50;;;9.60;99.90;;;;;;4982132;28;20464;-87
2022/03/16 03:43:33;;;;;;;51.20;34.43;;;9.80;99.90;;;;;;4983541;28;20488;-87
2022/03/16 03:46:00;;;;;;;60.00;35.77;;;9.60;99.90;;;;;;4988527;28;20504;-87
2022/03/16 03:48:27;;;;;;;60.33;35.37;;;9.60;99.90;;;;;;4994619;28;20452;-87
2022/03/16 03:50:56;;;;;;;56.50;37.33;;;9.60;99.90;;;;;;4984252;28;20523;-86
2022/03/16 03:53:23;;;;;;;53.80;32.73;;;9.60;99.90;;;;;;4982753;28;20456;-87
2022/03/16 03:55:50;;;;;;;53.57;31.73;;;9.60;99.90;;;;;;4983791;28;20488;-87
2022/03/16 03:58:17;;;;;;;60.40;36.00;;;9.80;99.90;;;;;;4998631;28;20407;-88
2022/03/16 04:00:45;;;;;;;57.47;36.90;;;9.80;99.90;;;;;;4998625;28;20480;-87
2022/03/16 04:03:12;;;;;;;49.27;32.80;;;9.80;99.90;;;;;;4981790;28;20484;-87
2022/03/16 04:05:41;;;;;;;53.27;36.07;;;9.70;99.90;;;;;;4988858;28;20542;-88
2022/03/16 04:08:09;;;;;;;51.07;33.53;;;9.60;99.90;;;;;;4983617;28;20539;-87
2022/03/16 04:13:19;;;;;;;54.07;34.97;;;9.60;99.90;;;;;;4992787;28;20444;-88
2022/03/16 04:15:46;;;;;;;55.03;32.20;;;9.60;99.90;;;;;;4997893;28;20485;-87
2022/03/16 04:18:13;;;;;;;55.23;36.83;;;9.80;99.90;;;;;;4983267;28;20920;-87
2022/03/16 04:20:40;;;;;;;54.43;34.70;;;9.80;99.90;;;;;;4982116;28;20803;-87
2022/03/16 04:23:09;;;;;;;56.63;36.17;;;9.80;99.90;;;;;;4995594;28;20503;-87
2022/03/16 04:25:36;;;;;;;58.50;36.60;;;9.80;99.90;;;;;;4993071;28;20499;-87
2022/03/16 04:28:04;;;;;;;52.83;33.30;;;9.70;99.90;;;;;;4979873;28;20468;-87
2022/03/16 04:30:31;;;;;;;53.20;34.30;;;9.70;99.90;;;;;;4979714;28;20460;-86
2022/03/16 04:32:58;;;;;;;56.50;34.50;;;9.80;99.90;;;;;;4981951;28;20463;-88
2022/03/16 04:35:28;;;;;;;53.53;33.30;;;9.80;99.90;;;;;;4983536;28;20480;-87
2022/03/16 04:37:55;;;;;;;52.00;33.33;;;9.70;99.90;;;;;;4983749;28;20495;-88
2022/03/16 04:40:23;;;;;;;60.93;33.83;;;9.80;99.90;;;;;;4982744;28;20460;-87
2022/03/16 04:42:50;;;;;;;54.03;34.33;;;9.70;99.90;;;;;;4986445;28;20455;-89
2022/03/16 04:45:17;;;;;;;57.60;36.10;;;9.60;99.90;;;;;;4989443;28;20500;-88
2022/03/16 04:47:45;;;;;;;61.93;37.23;;;9.50;99.90;;;;;;4986695;28;20436;-89
2022/03/16 04:50:12;;;;;;;63.97;39.00;;;9.50;99.90;;;;;;4981857;28;20951;-89
2022/03/16 04:52:45;;;;;;;63.40;39.10;;;9.50;99.90;;;;;;4984012;28;20522;-88
2022/03/16 04:55:13;;;;;;;57.23;33.70;;;9.60;99.90;;;;;;5028577;23;20511;-86
2022/03/16 04:57:42;;;;;;;61.90;37.40;;;9.60;99.90;;;;;;4978550;28;20463;-86
2022/03/16 05:00:10;;;;;;;55.60;30.63;;;9.40;99.90;;;;;;4978571;28;20534;-86
2022/03/16 05:02:37;;;;;;;57.63;34.93;;;9.50;99.90;;;;;;4979533;28;20448;-87
2022/03/16 05:05:05;;;;;;;61.93;36.33;;;9.30;99.90;;;;;;4979842;28;20583;-87
2022/03/16 05:07:32;;;;;;;60.13;36.60;;;9.30;99.90;;;;;;4986465;28;20487;-86
2022/03/16 05:09:59;;;;;;;71.60;39.70;;;9.20;99.90;;;;;;4988314;28;20480;-87
2022/03/16 05:12:26;;;;;;;69.30;39.60;;;9.10;99.90;;;;;;4981683;28;20487;-87
2022/03/16 05:14:54;;;;;;;67.50;39.10;;;9.10;99.90;;;;;;4981902;28;20480;-86
2022/03/16 05:17:21;;;;;;;60.60;36.77;;;9.30;99.90;;;;;;4981736;28;20460;-87
2022/03/16 05:19:51;;;;;;;65.20;40.30;;;9.20;99.90;;;;;;4994027;28;20456;-87
2022/03/16 05:22:19;;;;;;;67.80;42.27;;;9.20;99.90;;;;;;4979798;28;20552;-87
2022/03/16 05:24:46;;;;;;;69.03;39.40;;;9.40;99.90;;;;;;4980434;28;20503;-86
2022/03/16 05:27:13;;;;;;;74.27;42.90;;;9.30;99.90;;;;;;4987563;28;20526;-87
2022/03/16 05:29:40;;;;;;;67.10;39.80;;;9.30;99.90;;;;;;4997533;28;20507;-87
2022/03/16 05:32:08;;;;;;;68.67;40.47;;;9.30;99.90;;;;;;4990933;28;20985;-88
2022/03/16 05:34:36;;;;;;;66.20;41.97;;;9.40;99.90;;;;;;4987891;28;21019;-87
2022/03/16 05:37:03;;;;;;;70.57;40.90;;;9.40;99.90;;;;;;4985241;28;20973;-87
2022/03/16 05:39:30;;;;;;;66.03;37.97;;;9.50;99.90;;;;;;4981640;28;20464;-88
2022/03/16 05:41:57;;;;;;;66.03;35.33;;;9.50;99.90;;;;;;4987416;28;20448;-89
2022/03/16 05:44:24;;;;;;;62.77;37.43;;;9.60;99.90;;;;;;4987055;28;20516;-85
2022/03/16 05:46:54;;;;;;;66.90;40.93;;;9.50;99.90;;;;;;4983526;28;20471;-86
2022/03/16 05:49:28;;;;;;;63.90;37.80;;;9.60;99.90;;;;;;4980840;28;20471;-87
2022/03/16 05:51:55;;;;;;;66.43;38.33;;;9.50;99.90;;;;;;4980164;28;20539;-87
2022/03/16 05:54:22;;;;;;;61.70;39.27;;;9.60;99.90;;;;;;4979989;28;20531;-87
2022/03/16 05:56:49;;;;;;;68.77;41.83;;;9.60;99.90;;;;;;4986058;28;20535;-87
2022/03/16 05:59:16;;;;;;;61.27;39.70;;;9.50;99.90;;;;;;4989723;28;20441;-88
2022/03/16 06:01:43;;;;;;;66.07;38.80;;;9.40;99.90;;;;;;4985419;28;20949;-88
2022/03/16 06:04:11;;;;;;;70.13;41.90;;;9.40;99.90;;;;;;4980603;28;20487;-88
2022/03/16 06:06:40;;;;;;;65.00;39.80;;;9.50;99.90;;;;;;4978114;28;20484;-87
2022/03/16 06:09:07;;;;;;;64.87;39.70;;;9.60;99.90;;;;;;4979212;28;20514;-87
2022/03/16 06:11:34;;;;;;;66.60;41.23;;;9.60;99.90;;;;;;4986699;28;20430;-87
2022/03/16 06:14:15;;;;;;;68.87;40.43;;;9.50;99.90;;;;;;4984042;28;20517;-88
2022/03/16 06:16:47;;;;;;;68.40;43.47;;;9.60;99.90;;;;;;4983635;28;20485;-89
2022/03/16 06:19:28;;;;;;;64.10;40.83;;;9.60;99.90;;;;;;4991172;28;20439;-87
2022/03/16 06:29:05;;;;;;;62.43;39.93;;;9.70;99.90;;;;;;4862575;29;20822;-87
2022/03/16 06:31:38;;;;;;;66.20;40.63;;;9.70;99.90;;;;;;4907682;29;20474;-88
2022/03/16 06:34:17;;;;;;;68.70;40.97;;;9.60;99.90;;;;;;4969792;28;20452;-87
2022/03/16 06:42:45;;;;;;;84.27;41.90;;;10.00;99.90;;;;;;4982072;28;20559;-88
2022/03/16 06:45:19;;;;;;;65.83;38.40;;;9.90;99.90;;;;;;4986918;28;20495;-88
2022/03/16 06:47:49;;;;;;;72.63;40.43;;;10.00;99.90;;;;;;4991496;28;20470;-88
2022/03/16 06:50:22;;;;;;;73.20;41.87;;;10.00;99.90;;;;;;4985017;28;20556;-88
2022/03/16 06:52:58;;;;;;;69.73;39.57;;;9.80;99.90;;;;;;4987890;28;20907;-88
2022/03/16 06:55:55;;;;;;;71.27;42.10;;;9.80;99.90;;;;;;4990587;28;20487;-88
2022/03/16 06:58:25;;;;;;;72.73;43.87;;;9.90;99.90;;;;;;4984040;28;20448;-88
2022/03/16 07:00:59;;;;;;;79.73;41.47;;;9.90;99.90;;;;;;4985141;28;20436;-87
2022/03/16 07:03:26;;;;;;;63.23;40.27;;;9.90;99.90;;;;;;4983880;28;20953;-87
2022/03/16 07:06:00;;;;;;;72.43;41.27;;;10.20;99.90;;;;;;4991527;28;20468;-88
2022/03/16 07:08:27;;;;;;;66.50;40.00;;;10.20;99.90;;;;;;5000506;28;20498;-87
2022/03/16 07:11:03;;;;;;;61.70;40.00;;;10.10;99.90;;;;;;4992387;28;20555;-87
2022/03/16 07:13:31;;;;;;;66.70;39.77;;;10.10;99.90;;;;;;4986154;28;20496;-87
2022/03/16 07:16:03;;;;;;;66.57;39.70;;;10.00;99.90;;;;;;4984744;28;20476;-87
2022/03/16 07:18:31;;;;;;;68.20;41.37;;;10.00;99.90;;;;;;4984495;28;20491;-88
2022/03/16 07:21:04;;;;;;;64.90;37.73;;;10.10;99.90;;;;;;4984543;28;20466;-87
2022/03/16 07:23:34;;;;;;;61.17;38.37;;;10.10;99.90;;;;;;4985968;28;20539;-87
2022/03/16 07:26:05;;;;;;;66.90;39.17;;;10.20;99.90;;;;;;4984537;28;20491;-87
2022/03/16 07:28:37;;;;;;;63.73;36.97;;;10.40;99.90;;;;;;4987566;28;20448;-87
2022/03/16 07:31:11;;;;;;;65.40;38.67;;;10.20;99.90;;;;;;4992814;28;20453;-87
2022/03/16 07:33:42;;;;;;;67.33;38.33;;;10.20;99.90;;;;;;4988491;28;20482;-88
2022/03/16 07:36:28;;;;;;;75.80;45.87;;;10.00;99.90;;;;;;4992972;28;20472;-87
2022/03/16 07:39:35;;;;;;;74.60;41.10;;;10.00;99.90;;;;;;4995547;28;20476;-87
2022/03/16 07:42:26;;;;;;;68.43;42.67;;;10.10;99.90;;;;;;4913916;29;20483;-87
2022/03/16 07:48:29;;;;;;;65.17;37.00;;;10.00;99.90;;;;;;4988771;28;20986;-89
2022/03/16 07:51:20;;;;;;;63.53;39.43;;;10.00;99.90;;;;;;4991296;28;20410;-88
2022/03/16 07:53:58;;;;;;;66.20;38.40;;;10.00;99.90;;;;;;4990381;28;20429;-87
2022/03/16 07:56:33;;;;;;;51.43;33.93;;;10.10;99.90;;;;;;4988032;28;20898;-87
2022/03/16 07:59:09;;;;;;;59.93;32.67;;;10.20;99.90;;;;;;4988371;28;20432;-87
2022/03/16 08:01:51;;;;;;;53.57;31.57;;;10.10;99.90;;;;;;4985764;28;20417;-87
2022/03/16 08:04:46;;;;;;;44.23;25.57;;;10.10;99.90;;;;;;4985705;28;20875;-87
2022/03/16 08:10:31;;;;;;;59.40;38.40;;;9.90;99.90;;;;;;4981972;28;20440;-87
2022/03/16 08:13:22;;;;;;;51.70;31.77;;;9.90;99.90;;;;;;4996292;28;20444;-88
2022/03/16 08:16:33;;;;;;;55.20;31.57;;;9.80;99.90;;;;;;4983834;28;20556;-88
2022/03/16 08:32:34;;;;;;;47.30;27.73;;;10.10;99.90;;;;;;4941986;29;20472;-87
2022/03/16 08:35:48;;;;;;;48.90;29.03;;;9.80;99.90;;;;;;4948974;29;21015;-86
2022/03/16 08:38:46;;;;;;;42.87;27.10;;;9.90;99.90;;;;;;4972400;28;20443;-87
2022/03/16 08:49:50;;;;;;;42.13;30.63;;;10.00;99.90;;;;;;4210240;26;20476;-89
2022/03/16 08:52:29;;;;;;;43.13;28.20;;;10.00;99.90;;;;;;4983504;28;20567;-88
2022/03/16 09:15:29;;;;;;;35.73;22.40;;;10.20;99.90;;;;;;6157283;22;1463121;-87
2022/03/16 09:17:59;;;;;;;40.40;24.17;;;10.50;99.90;;;;;;6188790;23;20361;-87
2022/03/16 09:20:35;;;;;;;33.07;22.80;;;10.60;99.90;;;;;;6183398;23;20469;-87
2022/03/16 09:23:05;;;;;;;40.30;25.90;;;10.60;99.90;;;;;;6175860;23;20484;-88
2022/03/16 09:25:44;;;;;;;35.93;23.60;;;10.60;99.90;;;;;;6176582;23;20465;-88
2022/03/16 09:28:31;;;;;;;35.90;25.50;;;10.70;99.90;;;;;;6174173;23;20517;-88
2022/03/16 09:31:21;;;;;;;95.60;63.73;;;10.70;99.90;;;;;;6176222;23;20744;-89
2022/03/16 09:33:48;;;;;;;52.53;38.30;;;10.60;99.90;;;;;;6178282;23;20399;-88
2022/03/16 09:36:23;;;;;;;39.80;28.07;;;10.50;99.90;;;;;;6179600;23;20482;-89
2022/03/16 09:38:59;;;;;;;46.20;29.90;;;10.30;99.90;;;;;;6188339;23;20402;-88
2022/03/16 09:41:28;;;;;;;62.20;43.70;;;10.50;99.90;;;;;;6179158;23;20413;-87
2022/03/16 09:43:56;;;;;;;50.80;36.30;;;10.70;99.90;;;;;;6185696;23;20428;-87
2022/03/16 09:46:29;;;;;;;73.83;47.43;;;10.70;99.90;;;;;;6185374;23;20441;-89
2022/03/16 09:49:04;;;;;;;66.20;38.37;;;10.80;99.90;;;;;;6184922;23;20394;-89
2022/03/16 09:51:41;;;;;;;50.10;32.30;;;10.80;99.90;;;;;;6178696;23;20389;-87
2022/03/16 09:54:11;;;;;;;46.77;29.90;;;10.80;99.90;;;;;;6179057;23;20441;-87
2022/03/16 09:56:43;;;;;;;40.83;29.43;;;10.80;99.90;;;;;;6181958;23;20445;-88
2022/03/16 09:59:14;;;;;;;40.20;27.40;;;11.00;99.90;;;;;;6176856;23;21027;-87
2022/03/16 10:02:09;;;;;;;44.03;27.77;;;10.90;99.90;;;;;;6175325;23;20418;-88
2022/03/16 10:07:39;;;;;;;37.63;25.30;;;10.80;99.90;;;;;;6174283;23;20446;-87
2022/03/16 10:13:23;;;;;;;36.70;23.50;;;10.80;99.90;;;;;;6189110;23;20418;-87
2022/03/16 10:16:11;;;;;;;34.93;23.70;;;10.90;99.90;;;;;;6179653;23;20429;-88
2022/03/16 10:18:58;;;;;;;33.40;22.10;;;11.00;99.90;;;;;;6168930;23;20389;-87
2022/03/16 10:21:32;;;;;;;29.47;21.40;;;11.40;99.90;;;;;;6167640;23;20412;-87
2022/03/16 10:24:14;;;;;;;27.30;19.13;;;11.30;99.90;;;;;;6168280;23;20457;-87
2022/03/16 10:26:56;;;;;;;29.27;21.60;;;11.50;99.90;;;;;;6169591;23;20796;-89
2022/03/16 10:29:31;;;;;;;29.03;19.80;;;11.20;99.90;;;;;;6171647;23;20414;-88
2022/03/16 10:32:02;;;;;;;32.90;20.80;;;11.10;99.90;;;;;;6170818;23;20715;-87
2022/03/16 10:34:31;;;;;;;24.63;18.63;;;11.00;99.90;;;;;;6167329;23;20390;-88
2022/03/16 10:37:00;;;;;;;27.90;17.10;;;11.10;99.90;;;;;;6167935;23;20422;-88
2022/03/16 10:39:33;;;;;;;28.53;20.00;;;11.30;99.90;;;;;;6168144;23;20490;-90
2022/03/16 10:47:58;;;;;;;26.80;16.80;;;11.50;99.90;;;;;;6169079;23;20447;-89
2022/03/16 10:50:26;;;;;;;27.30;19.63;;;11.70;99.90;;;;;;6170437;23;20473;-87
2022/03/16 10:52:55;;;;;;;27.77;17.97;;;11.70;99.90;;;;;;6170444;23;20510;-87
2022/03/16 10:55:23;;;;;;;27.00;19.37;;;11.60;99.90;;;;;;6165560;23;21846;-88
2022/03/16 10:57:51;;;;;;;26.97;17.00;;;11.60;99.90;;;;;;6152769;23;20430;-88
2022/03/16 11:00:19;;;;;;;26.80;19.43;;;11.80;99.90;;;;;;6149125;23;20739;-87
2022/03/16 11:02:47;;;;;;;26.10;18.30;;;11.60;99.90;;;;;;6137916;23;20829;-88
2022/03/16 11:05:18;;;;;;;26.13;18.87;;;11.40;99.90;;;;;;6138827;23;20909;-88
2022/03/16 11:07:48;;;;;;;27.27;17.70;;;11.60;99.90;;;;;;6144967;23;20424;-87
2022/03/16 11:10:16;;;;;;;24.13;17.17;;;11.80;99.90;;;;;;6136048;23;20423;-86
2022/03/16 11:15:39;;;;;;;28.73;19.90;;;12.00;99.90;;;;;;6139684;23;20442;-86
2022/03/16 11:18:06;;;;;;;25.50;19.33;;;11.90;99.90;;;;;;6145084;23;20469;-87
2022/03/16 11:20:34;;;;;;;30.03;19.20;;;12.00;99.90;;;;;;6139967;23;20433;-87
2022/03/16 11:26:12;;;;;;;24.80;18.37;;;11.80;99.90;;;;;;6146848;23;20410;-88
2022/03/16 11:28:52;;;;;;;27.63;17.67;;;12.00;99.90;;;;;;6150483;23;20395;-89
2022/03/16 11:31:24;;;;;;;29.43;19.70;;;12.10;99.90;;;;;;6137440;23;20401;-88
2022/03/16 11:34:39;;;;;;;25.43;17.93;;;12.30;99.90;;;;;;6138673;23;20444;-87
2022/03/16 11:37:14;;;;;;;23.27;18.30;;;12.50;99.90;;;;;;6136864;23;20422;-87
2022/03/16 11:39:57;;;;;;;25.80;18.80;;;12.50;99.90;;;;;;6149971;23;20378;-88
2022/03/16 11:42:38;;;;;;;26.40;18.90;;;12.60;99.90;;;;;;6138294;23;20447;-89
2022/03/16 11:45:54;;;;;;;24.70;18.40;;;12.60;99.90;;;;;;6136719;23;20535;-88
2022/03/16 11:48:41;;;;;;;25.90;18.20;;;12.50;99.90;;;;;;6047578;23;20455;-87
2022/03/16 11:51:32;;;;;;;28.70;20.67;;;12.70;99.90;;;;;;6126760;23;20420;-88
2022/03/16 11:54:15;;;;;;;21.83;16.30;;;12.90;99.90;;;;;;6136352;23;20419;-87
2022/03/16 11:57:05;;;;;;;24.43;19.10;;;12.90;99.90;;;;;;6142270;23;20441;-88
2022/03/16 12:02:40;;;;;;;23.40;17.67;;;13.30;99.90;;;;;;6110189;23;20390;-89
2022/03/16 12:05:12;;;;;;;24.90;18.50;;;13.40;99.90;;;;;;6144332;23;20454;-87
2022/03/16 12:08:24;;;;;;;25.47;19.30;;;13.50;99.90;;;;;;6143894;23;20375;-88
2022/03/16 12:14:13;;;;;;;26.17;19.13;;;13.60;99.90;;;;;;6144746;23;20432;-88
2022/03/16 12:17:10;;;;;;;32.93;23.37;;;13.40;99.90;;;;;;6114770;23;20447;-88
2022/03/16 12:19:40;;;;;;;24.90;18.87;;;13.20;99.90;;;;;;6140432;23;20425;-89
2022/03/16 12:22:37;;;;;;;23.53;17.63;;;13.10;99.90;;;;;;6140558;23;20428;-88
2022/03/16 12:29:32;;;;;;;26.13;18.07;;;12.90;99.90;;;;;;6133655;23;20399;-88
2022/03/16 12:35:25;;;;;;;24.13;17.30;;;13.10;99.90;;;;;;6019515;23;20413;-88
2022/03/16 12:38:16;;;;;;;26.70;18.53;;;13.00;99.90;;;;;;6137686;23;20731;-87
2022/03/16 12:44:25;;;;;;;24.47;18.83;;;13.00;99.90;;;;;;6137898;23;20402;-88
2022/03/16 12:50:43;;;;;;;24.77;17.00;;;12.90;99.90;;;;;;6135021;23;20526;-87
2022/03/16 12:56:25;;;;;;;21.33;16.80;;;12.90;99.90;;;;;;6146253;23;20490;-87
2022/03/16 12:58:58;;;;;;;24.17;17.27;;;12.80;99.90;;;;;;6137071;23;20420;-88
2022/03/16 13:01:30;;;;;;;22.03;17.77;;;12.90;99.90;;;;;;6137224;23;20395;-88
2022/03/16 13:07:24;;;;;;;23.40;17.57;;;12.80;99.90;;;;;;6113044;23;20436;-87
2022/03/16 13:14:10;;;;;;;23.50;17.07;;;13.20;99.90;;;;;;6144922;23;20417;-87
2022/03/16 13:17:04;;;;;;;23.07;16.97;;;13.40;99.90;;;;;;6117350;23;20443;-87
2022/03/16 13:19:37;;;;;;;22.20;16.23;;;13.60;99.90;;;;;;6136977;23;20482;-87
2022/03/16 13:22:11;;;;;;;31.43;17.23;;;13.60;99.90;;;;;;6139260;23;20815;-87
2022/03/16 13:24:49;;;;;;;20.30;16.10;;;13.50;99.90;;;;;;6134635;23;20411;-87
2022/03/16 13:27:45;;;;;;;22.77;17.40;;;13.60;99.90;;;;;;6133961;23;20408;-88
2022/03/16 13:30:38;;;;;;;22.03;15.80;;;13.80;99.90;;;;;;6133902;23;20439;-88
2022/03/16 13:33:50;;;;;;;19.73;16.60;;;13.90;99.90;;;;;;6133965;23;20378;-87
2022/03/16 13:36:36;;;;;;;22.30;17.77;;;13.70;99.90;;;;;;6077903;23;20487;-86
2022/03/16 13:39:49;;;;;;;25.67;17.13;;;13.90;99.90;;;;;;6148882;23;20351;-88
2022/03/16 13:42:19;;;;;;;25.97;15.43;;;13.70;99.90;;;;;;6046263;23;20435;-88
2022/03/16 13:45:26;;;;;;;22.70;16.10;;;14.00;99.90;;;;;;6135632;23;20533;-86
2022/03/16 13:48:38;;;;;;;22.40;16.40;;;13.90;99.90;;;;;;6131869;23;20417;-87
2022/03/16 13:51:11;;;;;;;19.50;14.63;;;13.90;99.90;;;;;;6131460;23;20403;-88
2022/03/16 13:54:21;;;;;;;20.37;15.20;;;13.80;99.90;;;;;;6139627;23;20467;-88
2022/03/16 13:57:17;;;;;;;22.70;15.70;;;13.80;99.90;;;;;;6147847;23;20811;-88
2022/03/16 14:00:16;;;;;;;22.90;14.77;;;13.60;99.90;;;;;;6118102;23;20394;-88
2022/03/16 14:05:52;;;;;;;22.87;17.00;;;13.70;99.90;;;;;;6124788;23;20441;-88
2022/03/16 14:12:34;;;;;;;24.70;16.23;;;13.40;99.90;;;;;;6028133;23;20494;-87
2022/03/16 14:18:53;;;;;;;22.47;16.57;;;13.50;99.90;;;;;;6139979;23;20383;-87
2022/03/16 14:21:32;;;;;;;22.73;15.60;;;13.60;99.90;;;;;;6111057;23;20409;-89
2022/03/16 14:24:40;;;;;;;24.03;16.30;;;13.70;99.90;;;;;;6109406;23;20452;-87
2022/03/16 14:27:26;;;;;;;22.20;15.27;;;13.50;99.90;;;;;;6024250;23;20414;-86
2022/03/16 14:33:09;;;;;;;22.63;15.40;;;13.30;99.90;;;;;;6083077;23;20382;-88
2022/03/16 14:35:45;;;;;;;25.17;15.33;;;13.30;99.90;;;;;;6104755;23;20433;-87
2022/03/16 14:38:30;;;;;;;20.30;15.27;;;13.30;99.90;;;;;;6106042;23;20412;-87
2022/03/16 14:41:16;;;;;;;24.43;16.90;;;13.30;99.90;;;;;;6109410;23;20367;-88
2022/03/16 15:29:11;;;;;;;;;;;;;;;;;;;;;
2022/03/16 15:45:49;;;;;;;22.33;17.93;;;13.10;99.90;;;;;;5985563;23;20474;-87
2022/03/16 16:56:51;;;;;;;24.93;14.67;;;12.70;99.90;;;;;;6119739;23;20475;-87
2022/03/16 16:59:18;;;;;;;19.63;14.93;;;12.80;99.90;;;;;;6110462;23;20451;-87
2022/03/16 17:01:47;;;;;;;19.83;14.63;;;12.80;99.90;;;;;;6109677;23;20428;-89
2022/03/16 17:07:42;;;;;;;18.50;15.37;;;12.90;99.90;;;;;;6102619;23;20461;-89
2022/03/16 17:10:20;;;;;;;19.90;15.40;;;12.70;99.90;;;;;;6118808;23;20395;-88
2022/03/16 17:12:58;;;;;;;23.00;14.40;;;12.50;99.90;;;;;;6122571;23;20440;-88
2022/03/16 17:18:36;;;;;;;18.17;14.80;;;12.60;99.90;;;;;;6106842;23;20391;-86
2022/03/16 17:21:06;;;;;;;25.80;17.80;;;12.80;99.90;;;;;;6108656;23;20438;-88
2022/03/16 17:23:38;;;;;;;24.30;16.03;;;12.80;99.90;;;;;;6107218;23;20868;-87
2022/03/16 17:26:26;;;;;;;21.07;15.40;;;12.70;99.90;;;;;;6112498;23;20448;-86